Airfield :
LOGIN :

Register | Disclaimer

   EN    FR    IT 

 










Legend :    VFR   Marginal VFR   IFR   Intensive IFR   Very Intensive IFR
Visi :
Ceiling :
>= 8 km
>= 3000ft
5 to 8 km
1000 to 3000 ft
1500m to 5 km
500 to 1000 ft
800 to 1500m
200 to 500 ft
< 800m
< 200 ft
Symbols :   Thunderstorms  Fog  Heavy snow  Heavy precipitations  Wind > 20 kt
SIGMETs :     Misc.  Thunderstorms  Icing  Turbulence  Mountain Waves  Volcanic Ashes






- Airport Elevation : 17 ft
- IATA code : GRQ


EHGG - Groningen Eelde

CURRENT METAR :
  • 220455Z AUTO 25006KT 1700 BR OVC001 05/05 Q1034

EXPIRED METARs :
  • 220425Z AUTO 24005KT 1700 BR OVC001 05/05 Q1034
  • 220355Z AUTO 23006KT 1500 BR OVC002 05/04 Q1035
  • 220325Z AUTO 25005KT 2000 BR FEW001 OVC002 05/04 Q1035
  • 220255Z AUTO 23006KT 210V270 2200 BR SCT002 OVC003 04/04 Q1035
  • 220225Z AUTO 23006KT 2100 BR FEW001 BKN002 BKN004 04/04 Q1035

TAF TAF EHGG
Valid from the 22 at 00:00 until the 23 at 06:00 UTC


212315Z 2200/2306 23006KT 2000 BR BKN002
PROB40 2206/2212 0700 -DZ FG BKN001
BECMG 2211/2214 33007KT 9999 NSW SCT015
BECMG 2218/2221 VRB03KT 2000 BCFG BR
PROB40 2220/2306 0300 FG VV000



MET'MAP, your aeronautical weather chart ! - Copyright ORBIFLY December 2007 - Disclaimer

ORBIFLY MET'MAP TEAM :

Programming & Development : Alexandra Zaïnal
Concept & original design : Baudouin d'Aumeries
Assistance for programming : Marc-Olivier Méhu
Technical & hardware support : Manuel Goepfert

Contact : metmap@orbifly.com




SOURCES & CREDITS :

   NOAA